Osceola, Washington
Current Conditions -  °F | °C
As of 10:53 PM on Thursday 30 Oct 2014 (Local Time) from KRNT Reporting Station
Light Rain Light Rain  
Wind Chill: 55°   Ceiling: 3600
Heat Index: 55°   Visibility: 10mi
Dew Point: 54°   Wind: 3mph
Humidity: 96%   Direction: 130°SE
Pressure: 29.77"   Gusts: NA
Location:  47.1782°N, 121.641°W
Report Text: KRNT 310553Z AUTO 13003KT 10SM -RA OVC036 13/12 A2977 RMK AO2 RAB30 SLP085 P0001 60045 T01280122 10150 20128 58004
Loading
Personal Weather Stations






























Interactive Weather Map
Tropical Storm Tracking
New forecast layout! Learn more

10-Day Weather Forecast

Advertisements
Track Severe Weather on mobile